Time;durP1;ratioP1;P1;durP2;ratioP2;P2;SDS_P1;SDS_P2;PMS_P1;PMS_P2;Temp;Humidity;BMP_temperature;BMP_pressure;BME280_temperature;BME280_humidity;BME280_pressure;Samples;Min_cycle;Max_cycle;Signal;HPM_P1;HPM_P2
2021/07/05 06:20:04;;;;;;;1.10;0.90;;;25.80;84.10;;;;;;6176319;23;20484;-95
2021/07/05 06:22:38;;;;;;;1.10;1.00;;;25.80;84.10;;;;;;6213971;23;20406;-95
2021/07/05 06:27:54;;;;;;;1.60;0.90;;;25.80;83.90;;;;;;6146248;23;20458;-95
2021/07/05 06:35:35;;;;;;;1.70;0.90;;;25.80;83.80;;;;;;6106591;23;20415;-93
2021/07/05 06:41:06;;;;;;;1.10;0.90;;;25.80;83.80;;;;;;6180697;23;20449;-92
2021/07/05 07:33:33;;;;;;;2.17;1.07;;;25.80;84.00;;;;;;6160584;22;20444;-96
2021/07/05 07:36:04;;;;;;;1.57;1.37;;;25.90;84.10;;;;;;6201147;23;20449;-96
2021/07/05 07:38:36;;;;;;;1.00;0.90;;;25.80;84.20;;;;;;6206023;23;20528;-96
2021/07/05 07:41:07;;;;;;;1.20;1.10;;;25.80;84.10;;;;;;6209570;23;20391;-95
2021/07/05 07:43:35;;;;;;;2.37;1.00;;;25.80;84.00;;;;;;6209872;23;20385;-95
2021/07/05 07:46:03;;;;;;;1.30;1.20;;;25.80;83.90;;;;;;6209545;23;20408;-96
2021/07/05 07:48:30;;;;;;;1.77;1.10;;;25.80;83.80;;;;;;6210485;23;20410;-96
2021/07/05 07:50:58;;;;;;;1.40;1.20;;;26.00;84.00;;;;;;6202805;23;20444;-94
2021/07/05 07:53:53;;;;;;;3.60;1.90;;;25.80;83.90;;;;;;6197499;23;20427;-96
2021/07/05 07:56:40;;;;;;;1.77;1.30;;;25.90;83.90;;;;;;6151540;23;20463;-96
2021/07/05 08:13:02;;;;;;;2.40;1.47;;;25.80;84.00;;;;;;6212774;23;20411;-96
2021/07/05 08:18:48;;;;;;;1.97;1.30;;;25.80;84.10;;;;;;6173822;23;20458;-93
2021/07/05 08:21:15;;;;;;;2.60;1.73;;;25.80;84.10;;;;;;6159291;23;20443;-94
2021/07/05 08:23:42;;;;;;;2.33;1.60;;;25.80;83.90;;;;;;6158376;23;20434;-93
2021/07/05 08:26:11;;;;;;;3.23;1.40;;;25.80;83.90;;;;;;6158585;23;20944;-94
2021/07/05 08:28:38;;;;;;;2.23;1.47;;;25.80;83.80;;;;;;6157566;23;20750;-94
2021/07/05 08:31:07;;;;;;;2.50;1.50;;;25.80;83.90;;;;;;6157960;23;20733;-92
2021/07/05 08:33:34;;;;;;;1.40;1.30;;;25.90;84.00;;;;;;6158287;23;20411;-93
2021/07/05 08:36:01;;;;;;;2.30;1.40;;;25.90;84.10;;;;;;6177874;23;20459;-92
2021/07/05 08:38:29;;;;;;;3.77;1.73;;;25.90;84.10;;;;;;6184639;23;20423;-92
2021/07/05 08:40:57;;;;;;;2.60;2.00;;;25.90;84.10;;;;;;6168898;23;20514;-92
2021/07/05 08:43:28;;;;;;;3.77;2.10;;;25.90;83.80;;;;;;6197383;23;20406;-94
2021/07/05 08:45:58;;;;;;;4.43;1.90;;;25.90;83.50;;;;;;6196058;23;20416;-96
2021/07/05 08:48:28;;;;;;;2.73;1.80;;;25.90;83.70;;;;;;6194158;23;20969;-94
2021/07/05 08:50:55;;;;;;;5.70;1.90;;;25.90;83.80;;;;;;6198511;23;20450;-96
2021/07/05 08:58:00;;;;;;;4.37;1.97;;;26.00;83.80;;;;;;6178451;23;20438;-96
2021/07/05 09:00:53;;;;;;;2.93;1.70;;;25.90;83.90;;;;;;6179834;23;20364;-96
2021/07/05 09:06:33;;;;;;;4.07;1.87;;;26.00;84.10;;;;;;6188780;23;20453;-96
2021/07/05 09:09:11;;;;;;;8.37;1.50;;;26.00;84.20;;;;;;6187967;23;20401;-93
2021/07/05 09:11:40;;;;;;;7.83;1.90;;;26.00;84.20;;;;;;6187421;23;20414;-92
2021/07/05 09:14:16;;;;;;;3.23;2.00;;;26.00;84.40;;;;;;6187261;23;20460;-94
2021/07/05 09:16:46;;;;;;;2.00;1.57;;;26.00;84.20;;;;;;6187206;23;20468;-94
2021/07/05 09:19:16;;;;;;;3.67;1.50;;;26.00;84.10;;;;;;6187927;23;20403;-93
2021/07/05 09:21:47;;;;;;;3.30;1.30;;;26.00;85.00;;;;;;6186876;23;20732;-94
2021/07/05 09:24:14;;;;;;;2.07;1.80;;;26.10;84.20;;;;;;6186958;23;20494;-93
2021/07/05 09:26:43;;;;;;;5.80;2.20;;;26.00;84.10;;;;;;6189010;23;20496;-94
2021/07/05 09:29:23;;;;;;;5.73;1.70;;;26.00;84.10;;;;;;6188215;23;20484;-94
2021/07/05 09:31:55;;;;;;;1.83;1.43;;;26.10;84.10;;;;;;6187184;23;20420;-91
2021/07/05 09:34:25;;;;;;;5.50;1.90;;;26.10;84.10;;;;;;6186554;23;20765;-92
2021/07/05 09:36:54;;;;;;;2.03;1.60;;;26.00;83.90;;;;;;6188141;23;20458;-91
2021/07/05 09:39:25;;;;;;;1.60;1.30;;;26.10;84.00;;;;;;6186358;23;20402;-92
2021/07/05 09:41:55;;;;;;;7.83;1.80;;;26.10;83.80;;;;;;6186437;23;20422;-93
2021/07/05 09:44:24;;;;;;;2.53;1.33;;;26.10;83.90;;;;;;6187695;23;20391;-91
2021/07/05 09:46:55;;;;;;;2.33;1.90;;;26.00;83.90;;;;;;6187906;23;20401;-91
2021/07/05 09:49:26;;;;;;;5.00;1.83;;;25.90;83.80;;;;;;6187329;23;20874;-92
2021/07/05 09:52:11;;;;;;;3.23;1.53;;;26.00;83.90;;;;;;6187812;23;20493;-91
2021/07/05 09:54:40;;;;;;;1.73;1.30;;;26.10;83.90;;;;;;6188454;23;20496;-89
2021/07/05 09:59:51;;;;;;;2.33;1.33;;;26.00;83.90;;;;;;6189843;23;20403;-91
2021/07/05 10:02:19;;;;;;;1.97;1.30;;;26.00;83.90;;;;;;6188220;23;20424;-91
2021/07/05 10:04:47;;;;;;;4.17;1.77;;;26.00;83.90;;;;;;6189783;23;20437;-91
2021/07/05 10:07:16;;;;;;;2.90;1.30;;;26.00;83.90;;;;;;6187151;23;20422;-93
2021/07/05 10:09:44;;;;;;;4.63;1.83;;;26.00;83.50;;;;;;6187501;23;20441;-92
2021/07/05 10:12:24;;;;;;;2.27;1.60;;;26.00;83.50;;;;;;6187650;23;20456;-92
2021/07/05 10:14:56;;;;;;;2.67;1.43;;;26.00;83.60;;;;;;6187409;23;20402;-93
2021/07/05 10:17:26;;;;;;;1.90;1.67;;;26.00;83.80;;;;;;6187691;23;20840;-93
2021/07/05 10:19:53;;;;;;;2.40;1.50;;;26.00;83.90;;;;;;6187160;23;20414;-93
2021/07/05 10:22:20;;;;;;;1.83;1.40;;;26.00;83.90;;;;;;6185577;23;20513;-93
2021/07/05 10:24:49;;;;;;;3.77;1.50;;;26.00;83.90;;;;;;6185789;23;20438;-94
2021/07/05 10:27:16;;;;;;;3.03;1.47;;;26.00;83.90;;;;;;6186425;23;20492;-92
2021/07/05 10:29:45;;;;;;;3.87;1.60;;;26.00;83.90;;;;;;6187038;23;20413;-93
2021/07/05 10:32:13;;;;;;;1.80;1.50;;;26.00;83.90;;;;;;6187231;23;20442;-93
2021/07/05 10:34:42;;;;;;;2.23;1.80;;;26.00;83.90;;;;;;6186649;23;20931;-92
2021/07/05 10:37:14;;;;;;;1.47;1.17;;;26.00;83.90;;;;;;6186011;23;20455;-93
2021/07/05 10:39:42;;;;;;;1.40;1.30;;;26.00;83.90;;;;;;6187144;23;20488;-92
2021/07/05 10:42:30;;;;;;;2.60;1.50;;;26.00;84.00;;;;;;6187172;23;20496;-92
2021/07/05 10:44:57;;;;;;;2.33;1.20;;;26.00;83.90;;;;;;6186799;23;20416;-93
2021/07/05 10:47:48;;;;;;;4.70;1.50;;;26.00;84.00;;;;;;6188935;23;20413;-93
2021/07/05 10:50:58;;;;;;;2.20;1.33;;;26.10;84.00;;;;;;6189030;23;20453;-94
2021/07/05 10:53:56;;;;;;;2.90;2.00;;;26.00;83.90;;;;;;6188729;23;20878;-92
2021/07/05 10:56:36;;;;;;;1.33;1.23;;;26.00;84.00;;;;;;6188330;23;20421;-93
2021/07/05 10:59:34;;;;;;;3.30;1.73;;;26.00;84.10;;;;;;6189254;23;20854;-92
2021/07/05 11:02:02;;;;;;;2.00;1.40;;;26.00;84.00;;;;;;6188963;23;20408;-92
2021/07/05 11:04:30;;;;;;;3.33;1.60;;;25.90;84.90;;;;;;6188421;23;20410;-92
2021/07/05 11:06:59;;;;;;;4.43;1.60;;;26.00;84.10;;;;;;6188557;23;20430;-92
2021/07/05 11:09:28;;;;;;;1.53;1.43;;;26.00;84.40;;;;;;6188362;23;20409;-92
2021/07/05 11:11:57;;;;;;;3.00;1.53;;;26.00;84.00;;;;;;6188395;23;20496;-93
2021/07/05 11:14:28;;;;;;;1.60;1.30;;;26.00;84.00;;;;;;6188689;23;20478;-93
2021/07/05 11:17:07;;;;;;;1.63;1.47;;;26.00;84.00;;;;;;6188155;23;20524;-92
2021/07/05 11:19:40;;;;;;;2.80;1.43;;;26.00;84.10;;;;;;6188811;23;20422;-93
2021/07/05 11:22:16;;;;;;;1.30;1.20;;;26.10;84.30;;;;;;6187971;23;20722;-92
2021/07/05 11:24:56;;;;;;;1.43;1.33;;;26.10;84.40;;;;;;6189053;23;20449;-92
2021/07/05 11:27:37;;;;;;;1.70;1.37;;;26.10;84.40;;;;;;6189349;23;20944;-92
2021/07/05 11:30:17;;;;;;;1.90;1.70;;;26.10;84.40;;;;;;6188023;23;20398;-92
2021/07/05 11:32:46;;;;;;;9.63;2.97;;;26.10;84.40;;;;;;6189647;23;20509;-93
2021/07/05 11:35:37;;;;;;;10.27;2.70;;;26.10;84.40;;;;;;6191953;23;20505;-92
2021/07/05 11:38:07;;;;;;;41.43;6.37;;;26.10;84.30;;;;;;6189365;23;20427;-92
2021/07/05 11:40:52;;;;;;;45.17;8.07;;;26.10;84.50;;;;;;6164756;23;20420;-93
2021/07/05 11:43:44;;;;;;;57.77;9.83;;;26.10;84.40;;;;;;6186960;23;20481;-92
2021/07/05 11:46:15;;;;;;;62.33;9.90;;;26.10;84.30;;;;;;6188117;23;20417;-92
2021/07/05 11:48:54;;;;;;;60.03;12.10;;;26.10;84.30;;;;;;6187993;23;20461;-92
2021/07/05 11:51:27;;;;;;;63.83;12.07;;;26.10;84.30;;;;;;6188091;23;20416;-93
2021/07/05 11:53:57;;;;;;;55.07;8.97;;;26.10;84.40;;;;;;6188021;23;20898;-92
2021/07/05 11:56:34;;;;;;;50.83;10.63;;;26.10;83.80;;;;;;6186982;23;20411;-92
2021/07/05 11:59:02;;;;;;;38.83;8.73;;;26.10;83.90;;;;;;6187002;23;20399;-92
2021/07/05 12:01:31;;;;;;;40.20;10.20;;;26.10;84.00;;;;;;6187109;23;20426;-92
2021/07/05 12:03:59;;;;;;;37.07;9.27;;;26.10;84.10;;;;;;6187569;23;20413;-92
2021/07/05 12:06:27;;;;;;;41.50;8.70;;;26.10;84.20;;;;;;6186994;23;20450;-92
2021/07/05 12:08:57;;;;;;;39.00;6.77;;;26.10;84.10;;;;;;6187474;23;20494;-93
2021/07/05 12:11:40;;;;;;;33.10;7.17;;;26.10;84.10;;;;;;6188448;23;20925;-92
2021/07/05 12:14:13;;;;;;;27.77;6.77;;;26.10;83.90;;;;;;6187503;23;20745;-94
2021/07/05 12:16:44;;;;;;;16.37;6.60;;;26.10;84.00;;;;;;6187547;23;20407;-93
2021/07/05 12:19:13;;;;;;;29.00;6.40;;;26.10;83.90;;;;;;6187501;23;20425;-92
2021/07/05 12:21:43;;;;;;;20.73;6.07;;;26.10;84.70;;;;;;6161098;23;20411;-93
2021/07/05 12:24:16;;;;;;;27.90;7.00;;;26.10;83.80;;;;;;6188027;23;20386;-93
2021/07/05 12:26:48;;;;;;;19.03;4.37;;;26.10;83.80;;;;;;6187420;23;20401;-93
2021/07/05 12:29:18;;;;;;;9.23;3.90;;;26.10;83.20;;;;;;6187584;23;20395;-93
2021/07/05 12:32:01;;;;;;;13.87;4.67;;;26.10;81.30;;;;;;6187848;23;20405;-93
2021/07/05 12:34:44;;;;;;;13.10;4.90;;;26.10;81.10;;;;;;6187794;23;20874;-92
2021/07/05 12:37:21;;;;;;;22.37;5.07;;;26.10;82.10;;;;;;6187815;23;20529;-94
2021/07/05 12:39:51;;;;;;;15.73;5.13;;;26.10;82.20;;;;;;6187758;23;20473;-93
2021/07/05 12:42:22;;;;;;;19.30;5.10;;;26.10;83.00;;;;;;6187674;23;20386;-92
2021/07/05 12:44:50;;;;;;;8.47;4.40;;;26.10;83.10;;;;;;6186976;23;20483;-94
2021/07/05 12:47:17;;;;;;;12.17;4.43;;;26.00;83.00;;;;;;6187435;23;20438;-92
2021/07/05 12:49:44;;;;;;;15.00;4.80;;;26.00;82.00;;;;;;6187052;23;20438;-93
2021/07/05 12:52:11;;;;;;;5.53;3.10;;;26.00;81.90;;;;;;6186966;23;20424;-92
2021/07/05 12:54:39;;;;;;;9.80;4.07;;;26.00;81.90;;;;;;6187306;23;20411;-93
2021/07/05 12:57:11;;;;;;;11.07;4.53;;;26.20;81.70;;;;;;6187364;23;20489;-92
2021/07/05 12:59:44;;;;;;;8.93;3.97;;;26.00;82.10;;;;;;6187024;23;20806;-94
2021/07/05 13:05:10;;;;;;;10.30;4.10;;;26.00;81.70;;;;;;6194585;23;20569;-92
2021/07/05 13:07:38;;;;;;;8.30;3.93;;;26.00;82.00;;;;;;6187113;23;20453;-91
2021/07/05 13:10:07;;;;;;;13.03;3.87;;;26.00;82.40;;;;;;6187030;23;20413;-92
2021/07/05 13:12:35;;;;;;;10.73;4.30;;;26.00;82.70;;;;;;6187823;23;20406;-90
2021/07/05 13:15:15;;;;;;;15.67;4.07;;;26.00;82.80;;;;;;6188335;23;20508;-92
2021/07/05 13:17:42;;;;;;;9.70;3.93;;;26.00;82.80;;;;;;6187934;23;20832;-91
2021/07/05 13:20:11;;;;;;;5.33;3.87;;;26.00;82.80;;;;;;6186736;23;20495;-92
2021/07/05 13:22:49;;;;;;;6.53;3.73;;;26.00;82.80;;;;;;6206570;23;20422;-91
2021/07/05 13:25:16;;;;;;;7.53;4.10;;;26.00;83.60;;;;;;6213813;23;20413;-92
2021/07/05 13:27:43;;;;;;;12.23;4.23;;;26.00;82.80;;;;;;6213922;23;20420;-91
2021/07/05 13:30:15;;;;;;;8.10;3.20;;;26.00;82.80;;;;;;6194798;23;20497;-92
2021/07/05 13:32:57;;;;;;;6.77;3.20;;;26.00;82.80;;;;;;6186603;23;20910;-92
2021/07/05 13:35:30;;;;;;;10.33;3.57;;;26.00;82.80;;;;;;6187248;23;20702;-92
2021/07/05 13:37:59;;;;;;;6.17;3.10;;;26.00;82.90;;;;;;6186644;23;20508;-92
2021/07/05 13:40:27;;;;;;;9.50;4.00;;;26.00;83.00;;;;;;6186781;23;20441;-93
2021/07/05 13:43:01;;;;;;;6.97;4.67;;;26.00;83.00;;;;;;6186962;23;20485;-92
2021/07/05 13:45:32;;;;;;;8.20;3.37;;;26.00;83.10;;;;;;6186929;23;20428;-92
2021/07/05 13:48:00;;;;;;;8.20;3.83;;;26.00;83.10;;;;;;6187252;23;20412;-94
2021/07/05 13:50:34;;;;;;;5.53;3.00;;;26.00;83.10;;;;;;6186199;23;20430;-92
2021/07/05 13:53:04;;;;;;;7.03;3.07;;;26.00;83.10;;;;;;6187042;23;20425;-91
2021/07/05 13:55:35;;;;;;;4.33;3.40;;;26.00;83.20;;;;;;6186037;23;20733;-92
2021/07/05 13:58:05;;;;;;;5.60;3.23;;;26.00;83.20;;;;;;6186263;23;20446;-91
2021/07/05 14:00:37;;;;;;;7.60;3.43;;;26.00;83.20;;;;;;6186251;23;20485;-92
2021/07/05 14:03:04;;;;;;;4.37;3.10;;;26.00;83.20;;;;;;6186042;23;20434;-91
2021/07/05 14:05:32;;;;;;;17.27;4.37;;;26.00;83.30;;;;;;6185621;23;20829;-93
2021/07/05 14:08:00;;;;;;;5.13;3.77;;;26.00;83.40;;;;;;6187860;23;20421;-93
2021/07/05 14:10:27;;;;;;;5.67;3.33;;;26.00;83.60;;;;;;6186022;23;20435;-91
2021/07/05 14:12:56;;;;;;;4.23;3.70;;;26.10;83.70;;;;;;6186024;23;20410;-91
2021/07/05 14:15:23;;;;;;;7.13;3.90;;;26.00;83.60;;;;;;6186104;23;20946;-91
2021/07/05 14:17:52;;;;;;;5.93;3.93;;;26.00;83.80;;;;;;6185975;23;20448;-91
2021/07/05 14:20:19;;;;;;;6.83;3.50;;;26.00;83.80;;;;;;6185848;23;20419;-93
2021/07/05 14:22:46;;;;;;;6.30;2.93;;;26.10;83.90;;;;;;6186403;23;20417;-92
2021/07/05 14:25:15;;;;;;;5.63;3.33;;;26.00;83.80;;;;;;6186710;23;20413;-93
2021/07/05 14:27:43;;;;;;;3.17;2.87;;;26.00;83.80;;;;;;6186212;23;20458;-94
2021/07/05 14:30:11;;;;;;;6.73;3.20;;;26.00;83.80;;;;;;6186522;23;20406;-93
2021/07/05 14:32:39;;;;;;;4.30;3.40;;;26.00;83.80;;;;;;6186770;23;20875;-92
2021/07/05 14:35:11;;;;;;;5.77;3.73;;;26.00;83.80;;;;;;6186388;23;20493;-92
2021/07/05 14:37:38;;;;;;;3.90;3.47;;;26.10;83.90;;;;;;6186592;23;20516;-95
2021/07/05 14:40:07;;;;;;;7.40;3.50;;;26.00;83.80;;;;;;6187296;23;20417;-92
2021/07/05 14:42:34;;;;;;;5.37;2.97;;;26.00;83.80;;;;;;6186476;23;20414;-92
2021/07/05 14:45:01;;;;;;;3.20;2.87;;;26.00;83.90;;;;;;6186229;23;20489;-93
2021/07/05 14:47:28;;;;;;;4.93;3.40;;;26.00;83.90;;;;;;6186843;23;20489;-92
2021/07/05 14:49:55;;;;;;;3.60;2.90;;;26.00;83.90;;;;;;6187667;23;20729;-92
2021/07/05 14:52:23;;;;;;;6.67;3.30;;;26.00;84.00;;;;;;6188840;23;20513;-92
2021/07/05 14:54:50;;;;;;;9.73;3.07;;;26.00;84.10;;;;;;6190242;23;20427;-95
2021/07/05 14:57:17;;;;;;;5.93;2.90;;;26.00;84.20;;;;;;6187829;23;20451;-92
2021/07/05 14:59:45;;;;;;;5.87;3.00;;;26.00;84.10;;;;;;6186440;23;20399;-91
2021/07/05 15:02:12;;;;;;;3.27;2.90;;;26.00;84.20;;;;;;6185893;23;20416;-91
2021/07/05 15:04:39;;;;;;;6.47;3.23;;;26.20;84.40;;;;;;6186361;23;20428;-90
2021/07/05 15:07:06;;;;;;;8.80;3.10;;;26.00;84.20;;;;;;6185878;23;20940;-91
2021/07/05 15:09:34;;;;;;;3.30;2.83;;;26.00;84.20;;;;;;6185882;23;20485;-91
2021/07/05 15:12:02;;;;;;;3.00;2.70;;;26.00;84.90;;;;;;6185603;23;20410;-91
2021/07/05 15:14:29;;;;;;;10.33;3.10;;;26.00;85.00;;;;;;6186147;23;20433;-91
2021/07/05 15:16:56;;;;;;;7.97;2.70;;;26.00;84.20;;;;;;6185576;23;20438;-90
2021/07/05 15:19:23;;;;;;;4.93;3.10;;;26.10;84.40;;;;;;6185473;23;20557;-90
2021/07/05 15:21:50;;;;;;;3.73;2.90;;;26.10;84.60;;;;;;6186297;23;20411;-92
2021/07/05 15:24:18;;;;;;;4.90;3.10;;;26.00;84.50;;;;;;6186109;23;20414;-91
2021/07/05 15:26:48;;;;;;;4.40;3.20;;;26.10;84.60;;;;;;6187010;23;20905;-92
2021/07/05 15:29:15;;;;;;;6.33;3.00;;;26.10;84.70;;;;;;6189325;23;20893;-91
2021/07/05 15:31:42;;;;;;;7.33;3.10;;;26.20;84.80;;;;;;6187043;23;20446;-92
2021/07/05 15:34:09;;;;;;;11.77;3.73;;;26.20;84.90;;;;;;6188162;23;20474;-91
2021/07/05 15:36:37;;;;;;;6.53;3.30;;;26.10;84.80;;;;;;6187481;23;20430;-92
2021/07/05 15:39:05;;;;;;;6.73;3.50;;;26.10;84.80;;;;;;6187035;23;20445;-91
2021/07/05 15:41:35;;;;;;;6.43;3.23;;;26.10;85.00;;;;;;6187138;23;20758;-90
2021/07/05 15:44:04;;;;;;;8.00;3.80;;;26.20;85.10;;;;;;6186190;23;20414;-90
2021/07/05 15:46:32;;;;;;;6.57;3.27;;;26.10;85.10;;;;;;6187509;23;20409;-90
2021/07/05 15:48:59;;;;;;;6.13;2.70;;;26.10;85.10;;;;;;6187289;23;20418;-90
2021/07/05 15:51:26;;;;;;;2.40;2.07;;;26.10;85.00;;;;;;6187453;23;20790;-91
2021/07/05 15:53:53;;;;;;;3.40;2.73;;;26.10;84.70;;;;;;6187825;23;20410;-91
2021/07/05 15:56:20;;;;;;;3.17;2.87;;;26.10;84.70;;;;;;6187384;23;20915;-91
2021/07/05 15:58:47;;;;;;;6.90;3.37;;;26.10;84.70;;;;;;6187719;23;20450;-92
2021/07/05 16:01:15;;;;;;;4.83;3.00;;;26.10;84.70;;;;;;6187820;23;20418;-92
2021/07/05 16:03:42;;;;;;;4.73;2.83;;;26.10;84.80;;;;;;6187025;23;20494;-91
2021/07/05 16:06:09;;;;;;;2.80;2.60;;;26.00;84.60;;;;;;6186795;23;20983;-92
2021/07/05 16:08:36;;;;;;;2.87;2.67;;;26.00;84.40;;;;;;6186458;23;20446;-93
2021/07/05 16:11:03;;;;;;;2.70;2.50;;;26.00;84.70;;;;;;6187486;23;20939;-93
2021/07/05 16:13:30;;;;;;;2.93;2.73;;;26.10;85.10;;;;;;6187479;23;20457;-92
2021/07/05 16:15:57;;;;;;;2.73;2.53;;;26.10;85.00;;;;;;6187492;23;20412;-92
2021/07/05 16:18:26;;;;;;;3.80;2.37;;;26.10;84.80;;;;;;6187554;23;20459;-92
2021/07/05 16:20:54;;;;;;;3.67;2.90;;;26.10;84.90;;;;;;6187097;23;20809;-92
2021/07/05 16:23:21;;;;;;;5.30;2.57;;;26.00;85.70;;;;;;6187704;23;20448;-92
2021/07/05 16:25:48;;;;;;;3.00;2.70;;;26.00;84.70;;;;;;6187042;23;20745;-93
2021/07/05 16:28:15;;;;;;;2.70;2.47;;;26.00;84.30;;;;;;6187158;23;20815;-92
2021/07/05 16:30:43;;;;;;;3.00;2.10;;;26.00;84.20;;;;;;6187380;23;20442;-93
2021/07/05 16:33:12;;;;;;;2.90;2.60;;;26.00;84.30;;;;;;6187369;23;20412;-91
2021/07/05 16:35:40;;;;;;;3.40;2.63;;;26.00;84.30;;;;;;6189272;23;20431;-92
2021/07/05 16:38:07;;;;;;;2.90;2.60;;;26.10;84.40;;;;;;6188509;23;20436;-93
2021/07/05 16:40:34;;;;;;;4.27;2.53;;;26.10;84.40;;;;;;6187414;23;20809;-93
2021/07/05 16:43:01;;;;;;;2.80;2.60;;;26.00;84.10;;;;;;6187038;23;20468;-93
2021/07/05 16:45:28;;;;;;;2.93;2.20;;;26.00;84.70;;;;;;6187755;23;20412;-94
2021/07/05 16:47:57;;;;;;;2.40;2.20;;;26.00;83.80;;;;;;6187294;23;20899;-93
2021/07/05 16:50:27;;;;;;;1.93;1.80;;;26.10;83.90;;;;;;6187522;23;20414;-92
2021/07/05 16:52:57;;;;;;;2.77;2.07;;;26.00;85.00;;;;;;6187787;23;20915;-94
2021/07/05 16:55:26;;;;;;;2.40;2.00;;;26.00;84.30;;;;;;6187504;23;20412;-96
2021/07/05 16:57:54;;;;;;;3.93;2.40;;;26.00;84.20;;;;;;6187639;23;20737;-94
2021/07/05 17:00:24;;;;;;;3.97;2.23;;;26.00;84.30;;;;;;6187701;23;20485;-93
2021/07/05 17:02:54;;;;;;;3.93;2.47;;;26.10;84.60;;;;;;6188136;23;20451;-94
2021/07/05 17:05:24;;;;;;;3.77;2.07;;;26.00;84.50;;;;;;6187255;23;20512;-93
2021/07/05 17:07:53;;;;;;;2.70;2.10;;;26.10;84.30;;;;;;6187950;23;20791;-93
2021/07/05 17:10:23;;;;;;;2.47;1.47;;;26.10;84.20;;;;;;6187240;23;20438;-93
2021/07/05 17:12:50;;;;;;;1.90;1.47;;;26.00;83.30;;;;;;6160908;23;20406;-94
2021/07/05 17:15:19;;;;;;;1.97;1.50;;;26.00;82.60;;;;;;6187050;23;20434;-94
2021/07/05 17:17:46;;;;;;;1.57;1.33;;;26.00;82.80;;;;;;6187388;23;20406;-94
2021/07/05 17:20:14;;;;;;;3.97;1.40;;;26.00;82.70;;;;;;6187087;23;20447;-94
2021/07/05 17:22:41;;;;;;;3.23;1.40;;;26.00;82.40;;;;;;6187542;23;20410;-94
2021/07/05 17:25:10;;;;;;;1.83;1.30;;;26.00;82.40;;;;;;6187137;23;20398;-93
2021/07/05 17:27:39;;;;;;;1.77;1.53;;;26.00;82.60;;;;;;6187611;23;20403;-94
2021/07/05 17:30:08;;;;;;;1.20;1.10;;;26.00;82.80;;;;;;6187147;23;20444;-93
2021/07/05 17:32:35;;;;;;;1.60;1.50;;;26.00;82.80;;;;;;6187243;23;20398;-93
2021/07/05 17:35:02;;;;;;;1.30;1.10;;;26.10;82.80;;;;;;6187031;23;20721;-93
2021/07/05 17:37:33;;;;;;;1.60;1.37;;;26.00;82.80;;;;;;6187545;23;20422;-93
2021/07/05 17:39:59;;;;;;;1.33;1.23;;;26.10;83.20;;;;;;6188135;23;20775;-95
2021/07/05 17:42:26;;;;;;;2.80;1.83;;;26.00;83.30;;;;;;6187429;23;20410;-92
2021/07/05 17:44:54;;;;;;;2.87;1.77;;;26.00;83.40;;;;;;6186987;23;20413;-93
2021/07/05 17:47:21;;;;;;;1.40;1.30;;;26.00;83.60;;;;;;6186844;23;20430;-93
2021/07/05 17:49:48;;;;;;;4.50;1.10;;;26.00;83.60;;;;;;6187341;23;20497;-93
2021/07/05 17:52:15;;;;;;;1.70;1.60;;;26.10;83.80;;;;;;6187332;23;20398;-91
2021/07/05 17:54:42;;;;;;;1.70;1.40;;;26.00;83.80;;;;;;6186723;23;20501;-90
2021/07/05 17:57:09;;;;;;;2.27;2.00;;;26.10;83.90;;;;;;6187111;23;20405;-91
2021/07/05 17:59:35;;;;;;;6.33;2.20;;;26.00;83.80;;;;;;6186690;23;20444;-91
2021/07/05 18:02:05;;;;;;;1.60;1.50;;;26.00;83.80;;;;;;6185783;23;20425;-90
2021/07/05 18:04:32;;;;;;;1.87;1.57;;;26.00;83.80;;;;;;6185738;23;20415;-91
2021/07/05 18:06:59;;;;;;;2.33;1.40;;;26.00;83.90;;;;;;6185526;23;20439;-90
2021/07/05 18:09:27;;;;;;;2.57;1.67;;;26.00;83.80;;;;;;6188796;23;20410;-90
2021/07/05 18:11:54;;;;;;;1.70;1.60;;;26.00;83.80;;;;;;6204382;23;20409;-90
2021/07/05 18:14:21;;;;;;;2.33;1.50;;;26.00;83.80;;;;;;6199712;23;20497;-90
2021/07/05 18:16:48;;;;;;;1.50;1.40;;;26.10;83.80;;;;;;6193558;23;20410;-89
2021/07/05 18:19:19;;;;;;;3.60;1.60;;;26.10;83.80;;;;;;6186610;23;20446;-90
2021/07/05 18:21:46;;;;;;;2.60;1.23;;;26.00;83.70;;;;;;6187414;23;20398;-89
2021/07/05 18:24:13;;;;;;;1.37;1.27;;;26.10;83.80;;;;;;6186727;23;20465;-90
2021/07/05 18:26:43;;;;;;;1.70;1.37;;;26.20;83.80;;;;;;6185919;23;20414;-90
2021/07/05 18:29:10;;;;;;;1.60;1.03;;;26.10;83.70;;;;;;6185806;23;20879;-92
2021/07/05 18:31:37;;;;;;;1.30;1.20;;;26.10;83.70;;;;;;6189728;23;20411;-92
2021/07/05 18:34:04;;;;;;;2.40;1.10;;;26.10;83.70;;;;;;6185980;23;20432;-92
2021/07/05 18:36:33;;;;;;;2.53;1.50;;;26.20;83.70;;;;;;6185988;23;20427;-92
2021/07/05 18:39:00;;;;;;;1.70;1.30;;;26.20;83.40;;;;;;6186132;23;20448;-92
2021/07/05 18:41:27;;;;;;;1.57;1.47;;;26.20;83.30;;;;;;6186213;23;20495;-89
2021/07/05 18:43:54;;;;;;;2.37;1.30;;;26.10;83.40;;;;;;6185672;23;20486;-90
2021/07/05 18:46:22;;;;;;;2.00;1.37;;;26.10;83.50;;;;;;6185331;23;20509;-89
2021/07/05 18:48:49;;;;;;;3.80;1.43;;;26.10;83.50;;;;;;6185759;23;20509;-91
2021/07/05 18:51:17;;;;;;;1.63;1.53;;;26.10;84.30;;;;;;6185928;23;20413;-92
2021/07/05 18:53:46;;;;;;;4.13;1.63;;;26.10;83.40;;;;;;6185913;23;20488;-92
2021/07/05 18:56:13;;;;;;;1.97;1.60;;;26.10;83.30;;;;;;6186380;23;20489;-93
2021/07/05 18:58:41;;;;;;;2.90;1.40;;;26.10;82.80;;;;;;6185851;23;20432;-92
2021/07/05 19:01:08;;;;;;;1.50;1.07;;;26.10;82.80;;;;;;6185805;23;20496;-92
2021/07/05 19:03:34;;;;;;;1.20;1.03;;;26.00;82.60;;;;;;6185556;23;20418;-91
2021/07/05 19:06:01;;;;;;;3.30;1.50;;;26.00;82.40;;;;;;6185534;23;20438;-91
2021/07/05 19:08:28;;;;;;;1.80;1.40;;;25.90;82.60;;;;;;6187810;23;20409;-91
2021/07/05 19:10:56;;;;;;;1.90;1.13;;;25.90;82.80;;;;;;6187945;23;20748;-92
2021/07/05 19:13:23;;;;;;;3.60;1.60;;;25.90;82.60;;;;;;6187890;23;20477;-91
2021/07/05 19:15:50;;;;;;;2.40;1.33;;;26.00;82.60;;;;;;6188031;23;20488;-92
2021/07/05 19:18:17;;;;;;;2.13;1.30;;;25.90;83.00;;;;;;6187990;23;20416;-93
2021/07/05 19:20:44;;;;;;;1.50;1.00;;;25.90;83.20;;;;;;6187933;23;20451;-93
2021/07/05 19:23:11;;;;;;;1.20;1.10;;;25.90;83.40;;;;;;6188506;23;20490;-92
2021/07/05 19:25:38;;;;;;;5.60;1.40;;;25.80;83.60;;;;;;6188521;23;20732;-92
2021/07/05 19:28:07;;;;;;;1.90;1.47;;;25.80;83.70;;;;;;6187637;23;20408;-92
2021/07/05 19:30:36;;;;;;;1.23;1.10;;;25.80;83.70;;;;;;6187737;23;20488;-92
2021/07/05 19:33:03;;;;;;;2.90;1.47;;;25.90;83.70;;;;;;6187950;23;20445;-92
2021/07/05 19:35:30;;;;;;;4.67;1.67;;;25.90;83.70;;;;;;6187995;23;20508;-93
2021/07/05 19:37:58;;;;;;;1.20;1.10;;;25.90;83.80;;;;;;6188118;23;20466;-95
2021/07/05 19:40:24;;;;;;;1.67;1.50;;;26.00;84.00;;;;;;6188431;23;20452;-94
2021/07/05 19:42:51;;;;;;;1.47;1.37;;;26.00;84.10;;;;;;6187587;23;20441;-93
2021/07/05 19:45:20;;;;;;;1.50;1.17;;;26.00;84.10;;;;;;6187784;23;20430;-92
2021/07/05 19:47:48;;;;;;;2.13;1.00;;;26.00;84.10;;;;;;6188428;23;20418;-94
2021/07/05 19:50:15;;;;;;;2.60;1.10;;;26.00;84.10;;;;;;6188300;23;20461;-94
2021/07/05 19:52:42;;;;;;;1.20;1.03;;;26.00;84.10;;;;;;6188349;23;20904;-94
2021/07/05 19:55:12;;;;;;;2.57;1.47;;;26.00;84.10;;;;;;6193424;23;20437;-94
2021/07/05 19:57:39;;;;;;;2.27;0.83;;;26.00;84.10;;;;;;6189812;23;20781;-93
2021/07/05 20:00:08;;;;;;;2.90;1.30;;;26.00;84.10;;;;;;6188173;23;20449;-94
2021/07/05 20:02:37;;;;;;;1.77;1.30;;;26.10;85.10;;;;;;6187638;23;20461;-94
2021/07/05 20:05:05;;;;;;;1.70;1.27;;;26.10;84.20;;;;;;6188405;23;20433;-93
2021/07/05 20:07:32;;;;;;;1.40;1.20;;;26.10;84.30;;;;;;6190827;23;20401;-96
2021/07/05 20:09:59;;;;;;;2.03;1.10;;;26.10;84.10;;;;;;6191426;23;20420;-95
2021/07/05 20:12:26;;;;;;;1.23;1.10;;;26.10;84.20;;;;;;6188201;23;20444;-96
2021/07/05 20:14:53;;;;;;;2.23;1.30;;;26.10;84.40;;;;;;6188046;23;20418;-95
2021/07/05 20:17:20;;;;;;;1.60;1.37;;;26.10;84.40;;;;;;6188186;23;20430;-96
2021/07/05 20:19:48;;;;;;;1.17;1.07;;;26.10;84.40;;;;;;6187505;23;20520;-94
2021/07/05 20:22:15;;;;;;;2.23;1.40;;;26.10;84.50;;;;;;6188031;23;20478;-95
2021/07/05 20:24:42;;;;;;;2.20;1.70;;;26.10;84.40;;;;;;6187742;23;20449;-95
2021/07/05 20:27:09;;;;;;;1.63;1.20;;;26.10;84.40;;;;;;6198074;23;20470;-96
2021/07/05 20:29:36;;;;;;;1.40;1.07;;;26.10;84.50;;;;;;6191729;23;20734;-95
2021/07/05 20:32:03;;;;;;;1.30;1.17;;;26.10;84.50;;;;;;6187831;23;20496;-95
2021/07/05 20:34:30;;;;;;;1.43;1.33;;;26.10;84.50;;;;;;6191857;23;20445;-96
2021/07/05 20:36:58;;;;;;;2.77;1.40;;;26.10;84.50;;;;;;6168183;23;20543;-95
2021/07/05 20:39:25;;;;;;;1.80;1.20;;;26.10;84.50;;;;;;6158245;23;20450;-95
2021/07/05 20:41:53;;;;;;;1.37;1.27;;;26.10;84.50;;;;;;6158529;23;20493;-94
2021/07/05 20:44:20;;;;;;;1.70;1.00;;;26.10;84.50;;;;;;6158748;23;20470;-96
2021/07/05 20:49:27;;;;;;;1.47;1.37;;;26.10;84.60;;;;;;6165617;23;20405;-96
2021/07/05 20:51:54;;;;;;;1.17;1.07;;;26.10;84.60;;;;;;6165656;23;20414;-95